Time;durP1;ratioP1;P1;durP2;ratioP2;P2;SDS_P1;SDS_P2;PMS_P1;PMS_P2;Temp;Humidity;BMP_temperature;BMP_pressure;BME280_temperature;BME280_humidity;BME280_pressure;Samples;Min_cycle;Max_cycle;Signal;HPM_P1;HPM_P2
2022/04/07 00:01:04;;;;;;;3.40;3.10;;;12.30;99.90;;;;;;5056348;28;20207;-68
2022/04/07 00:03:30;;;;;;;3.43;2.57;;;12.40;99.90;;;;;;5055868;28;20176;-67
2022/04/07 00:05:57;;;;;;;3.90;3.07;;;12.40;99.90;;;;;;5056884;28;20802;-67
2022/04/07 00:08:22;;;;;;;3.20;2.20;;;12.30;99.90;;;;;;5054572;28;20175;-67
2022/04/07 00:10:48;;;;;;;3.37;2.50;;;12.30;99.90;;;;;;5052700;28;20465;-67
2022/04/07 00:13:14;;;;;;;3.60;2.17;;;12.30;99.90;;;;;;5052501;28;20269;-67
2022/04/07 00:15:40;;;;;;;2.57;2.03;;;12.30;99.90;;;;;;5052794;28;20272;-67
2022/04/07 00:18:06;;;;;;;2.63;2.00;;;12.20;99.90;;;;;;5055266;28;20445;-68
2022/04/07 00:20:33;;;;;;;2.07;1.87;;;12.10;99.90;;;;;;5058113;28;20475;-68
2022/04/07 00:22:59;;;;;;;2.37;1.80;;;12.10;99.90;;;;;;5068360;28;20203;-68
2022/04/07 00:25:27;;;;;;;3.97;2.00;;;12.10;99.90;;;;;;5051568;28;20456;-68
2022/04/07 00:27:53;;;;;;;2.47;2.23;;;12.20;99.90;;;;;;5050756;28;20225;-68
2022/04/07 00:30:21;;;;;;;3.20;1.93;;;12.20;99.90;;;;;;5053549;28;20487;-68
2022/04/07 00:32:48;;;;;;;7.17;1.83;;;12.20;99.90;;;;;;5051245;28;20886;-68
2022/04/07 00:35:14;;;;;;;2.60;2.00;;;12.20;99.90;;;;;;5052990;28;20846;-68
2022/04/07 00:37:40;;;;;;;2.83;2.17;;;12.30;99.90;;;;;;5053136;28;20918;-69
2022/04/07 00:40:07;;;;;;;2.63;2.27;;;12.30;99.90;;;;;;5049746;28;20494;-68
2022/04/07 00:42:33;;;;;;;3.30;2.10;;;12.30;99.90;;;;;;5051902;28;20473;-68
2022/04/07 00:45:00;;;;;;;2.40;1.90;;;12.30;99.90;;;;;;5049495;28;20486;-69
2022/04/07 00:47:27;;;;;;;2.33;2.10;;;12.20;99.90;;;;;;5051545;28;20229;-68
2022/04/07 00:49:53;;;;;;;1.80;1.60;;;12.20;99.90;;;;;;5051469;28;20430;-68
2022/04/07 00:52:19;;;;;;;3.00;1.80;;;12.10;99.90;;;;;;5051871;28;20517;-68
2022/04/07 00:54:46;;;;;;;2.00;1.60;;;12.10;99.90;;;;;;5049025;28;20584;-68
2022/04/07 00:57:13;;;;;;;2.30;1.73;;;12.10;99.90;;;;;;5050200;28;20437;-68
2022/04/07 00:59:39;;;;;;;2.93;1.53;;;12.10;99.90;;;;;;5051982;28;20707;-68
2022/04/07 01:02:06;;;;;;;2.10;1.70;;;12.10;99.90;;;;;;5052272;28;20470;-68
2022/04/07 01:04:32;;;;;;;1.90;1.57;;;12.00;99.90;;;;;;5054855;28;20900;-68
2022/04/07 01:06:58;;;;;;;2.40;1.53;;;12.00;99.90;;;;;;5054668;28;20517;-67
2022/04/07 01:09:24;;;;;;;1.80;1.40;;;12.00;99.90;;;;;;5052274;28;20477;-67
2022/04/07 01:11:52;;;;;;;2.10;1.43;;;12.00;99.90;;;;;;5051958;28;20215;-68
2022/04/07 01:14:18;;;;;;;1.90;1.50;;;12.10;99.90;;;;;;5053447;28;20262;-67
2022/04/07 01:16:43;;;;;;;1.97;1.50;;;12.10;99.90;;;;;;5055763;28;20557;-68
2022/04/07 01:19:09;;;;;;;3.50;1.60;;;12.10;99.90;;;;;;5051605;28;20233;-68
2022/04/07 01:21:37;;;;;;;2.07;1.40;;;12.00;99.90;;;;;;5050331;28;20215;-68
2022/04/07 01:24:06;;;;;;;2.10;1.67;;;12.00;99.90;;;;;;5052871;28;20430;-68
2022/04/07 01:26:43;;;;;;;1.70;1.33;;;12.00;99.90;;;;;;5052225;28;20817;-68
2022/04/07 01:29:14;;;;;;;4.33;1.67;;;11.90;99.90;;;;;;5058551;28;20436;-68
2022/04/07 01:31:40;;;;;;;4.03;1.60;;;11.90;99.90;;;;;;5049940;28;20477;-68
2022/04/07 01:34:10;;;;;;;2.87;1.60;;;11.90;99.90;;;;;;5051863;28;20445;-68
2022/04/07 01:36:39;;;;;;;2.17;1.57;;;12.00;99.90;;;;;;5050513;28;20450;-67
2022/04/07 01:39:07;;;;;;;1.80;1.60;;;11.90;99.90;;;;;;5051692;28;20865;-68
2022/04/07 01:41:35;;;;;;;1.90;1.67;;;11.90;99.90;;;;;;5051274;28;21025;-68
2022/04/07 01:44:02;;;;;;;1.80;1.50;;;12.00;99.90;;;;;;5054007;28;20439;-68
2022/04/07 01:46:30;;;;;;;2.43;1.37;;;12.00;99.90;;;;;;5050056;28;20461;-68
2022/04/07 01:48:58;;;;;;;2.80;1.80;;;12.00;99.90;;;;;;5053841;28;20441;-68
2022/04/07 01:51:24;;;;;;;2.37;1.70;;;11.80;99.90;;;;;;5051225;28;20487;-68
2022/04/07 01:53:50;;;;;;;2.47;1.50;;;11.80;99.90;;;;;;5048891;28;20540;-67
2022/04/07 01:56:18;;;;;;;2.07;1.50;;;11.70;99.90;;;;;;5049011;28;20457;-69
2022/04/07 01:58:44;;;;;;;2.07;1.60;;;11.60;99.90;;;;;;5054697;28;20457;-68
2022/04/07 02:01:10;;;;;;;3.13;2.00;;;11.60;99.90;;;;;;5050150;28;21216;-68
2022/04/07 02:03:36;;;;;;;2.23;1.67;;;11.50;99.90;;;;;;5048979;28;20575;-69
2022/04/07 02:06:13;;;;;;;2.00;1.50;;;11.50;99.90;;;;;;5048043;28;20273;-68
2022/04/07 02:08:39;;;;;;;2.10;1.60;;;11.40;99.90;;;;;;5051531;28;20592;-68
2022/04/07 02:11:05;;;;;;;2.03;1.70;;;11.40;99.90;;;;;;5050059;28;20461;-68
2022/04/07 02:13:34;;;;;;;2.30;1.50;;;11.30;99.90;;;;;;5048107;28;20215;-68
2022/04/07 02:16:01;;;;;;;2.20;1.63;;;11.30;99.90;;;;;;5047596;28;20957;-69
2022/04/07 02:18:27;;;;;;;2.23;1.63;;;11.30;99.90;;;;;;5049755;28;20441;-69
2022/04/07 02:20:52;;;;;;;2.20;1.80;;;11.30;99.90;;;;;;5053426;28;20453;-68
2022/04/07 02:23:18;;;;;;;2.10;1.60;;;11.30;99.90;;;;;;5049254;28;21409;-69
2022/04/07 02:25:43;;;;;;;2.00;1.70;;;11.30;99.90;;;;;;5048093;28;20203;-69
2022/04/07 02:28:09;;;;;;;2.43;1.67;;;11.20;99.90;;;;;;5048504;28;20881;-69
2022/04/07 02:30:35;;;;;;;1.70;1.50;;;11.20;99.90;;;;;;5049253;28;20684;-68
2022/04/07 02:33:00;;;;;;;3.40;1.90;;;11.20;99.90;;;;;;5050877;28;20457;-68
2022/04/07 02:35:26;;;;;;;2.30;1.60;;;11.10;99.90;;;;;;5050332;28;20184;-69
2022/04/07 02:37:52;;;;;;;3.30;1.70;;;11.20;99.90;;;;;;5050330;28;20199;-67
2022/04/07 02:40:17;;;;;;;2.07;1.50;;;11.10;99.90;;;;;;5050604;28;20267;-69
2022/04/07 02:42:43;;;;;;;1.87;1.50;;;11.20;99.90;;;;;;5048855;28;20208;-69
2022/04/07 02:45:09;;;;;;;2.40;1.40;;;11.30;99.90;;;;;;5046971;28;20281;-69
2022/04/07 02:47:38;;;;;;;2.07;1.77;;;11.40;99.90;;;;;;5048544;28;20190;-69
2022/04/07 02:50:05;;;;;;;2.17;1.60;;;11.40;99.90;;;;;;5046343;28;20430;-69
2022/04/07 02:52:30;;;;;;;6.10;1.43;;;11.40;99.90;;;;;;5050725;28;20454;-69
2022/04/07 02:54:56;;;;;;;1.77;1.50;;;11.50;99.90;;;;;;5052466;28;20433;-69
2022/04/07 02:57:30;;;;;;;1.93;1.57;;;11.50;99.90;;;;;;5053893;28;20246;-66
2022/04/07 02:59:59;;;;;;;4.30;1.80;;;11.50;99.90;;;;;;5053174;28;20274;-68
2022/04/07 03:02:26;;;;;;;2.07;1.57;;;11.50;99.90;;;;;;5067785;28;20500;-67
2022/04/07 03:04:51;;;;;;;1.83;1.47;;;11.60;99.90;;;;;;5049979;28;20590;-67
2022/04/07 03:07:17;;;;;;;2.00;1.40;;;11.60;99.90;;;;;;5054822;28;20827;-67
2022/04/07 03:09:43;;;;;;;1.50;1.13;;;11.50;99.90;;;;;;5053768;28;20517;-67
2022/04/07 03:12:09;;;;;;;1.60;1.40;;;11.60;99.90;;;;;;5055137;28;20203;-67
2022/04/07 03:14:35;;;;;;;2.67;1.67;;;11.60;99.90;;;;;;5052026;28;20437;-67
2022/04/07 03:17:01;;;;;;;1.90;1.50;;;11.60;99.90;;;;;;5051449;28;20445;-67
2022/04/07 03:19:27;;;;;;;1.50;1.37;;;11.60;99.90;;;;;;5055433;28;20438;-68
2022/04/07 03:21:52;;;;;;;1.80;1.47;;;11.60;99.90;;;;;;5052590;28;20527;-67
2022/04/07 03:24:18;;;;;;;1.80;1.37;;;11.60;99.90;;;;;;5052523;28;20190;-66
2022/04/07 03:26:43;;;;;;;4.07;1.80;;;11.60;99.90;;;;;;5052287;28;20195;-69
2022/04/07 03:29:09;;;;;;;2.47;1.70;;;11.60;99.90;;;;;;5055246;28;20640;-69
2022/04/07 03:31:35;;;;;;;3.73;1.73;;;11.60;99.90;;;;;;5051560;28;20712;-69
2022/04/07 03:34:01;;;;;;;2.10;1.53;;;11.60;99.90;;;;;;5053379;28;20199;-69
2022/04/07 03:36:26;;;;;;;5.07;1.57;;;11.60;99.90;;;;;;5051118;28;20188;-69
2022/04/07 03:38:52;;;;;;;1.60;1.33;;;11.60;99.90;;;;;;5049800;28;20456;-69
2022/04/07 03:41:18;;;;;;;1.90;1.50;;;11.60;99.90;;;;;;5053659;28;20207;-69
2022/04/07 03:43:44;;;;;;;1.70;1.30;;;11.60;99.90;;;;;;5044344;28;20187;-68
2022/04/07 03:46:10;;;;;;;3.70;1.80;;;11.60;99.90;;;;;;5050127;28;20176;-68
2022/04/07 03:48:36;;;;;;;2.43;1.57;;;11.60;99.90;;;;;;5051520;28;20524;-68
2022/04/07 03:51:02;;;;;;;3.10;1.67;;;11.50;99.90;;;;;;5050515;28;20461;-68
2022/04/07 03:53:28;;;;;;;1.90;1.40;;;11.50;99.90;;;;;;5054255;28;20438;-68
2022/04/07 03:55:53;;;;;;;1.90;1.50;;;11.50;99.90;;;;;;5049997;28;20184;-67
2022/04/07 03:58:19;;;;;;;2.60;1.47;;;11.50;99.90;;;;;;5051865;28;20246;-68
2022/04/07 04:00:44;;;;;;;2.07;1.60;;;11.50;99.90;;;;;;5050738;28;20206;-68
2022/04/07 04:03:10;;;;;;;2.30;1.53;;;11.40;99.90;;;;;;5053857;28;20237;-68
2022/04/07 04:05:36;;;;;;;3.17;1.80;;;11.40;99.90;;;;;;5051329;28;20190;-68
2022/04/07 04:08:01;;;;;;;1.90;1.70;;;11.40;99.90;;;;;;5051197;28;20191;-68
2022/04/07 04:10:27;;;;;;;2.80;2.10;;;11.40;99.90;;;;;;5051095;28;20188;-68
2022/04/07 04:12:52;;;;;;;2.10;1.67;;;11.40;99.90;;;;;;5052598;28;20202;-68
2022/04/07 04:15:18;;;;;;;8.50;1.90;;;11.40;99.90;;;;;;5051195;28;20187;-67
2022/04/07 04:17:44;;;;;;;3.57;1.80;;;11.40;99.90;;;;;;5055068;28;20180;-69
2022/04/07 04:20:10;;;;;;;1.93;1.60;;;11.50;99.90;;;;;;5055017;28;20184;-68
2022/04/07 04:22:36;;;;;;;2.23;1.60;;;11.50;99.90;;;;;;5050524;28;20219;-68
2022/04/07 04:25:03;;;;;;;1.60;1.37;;;11.50;99.90;;;;;;5050469;28;20966;-67
2022/04/07 04:27:28;;;;;;;2.00;1.63;;;11.50;99.90;;;;;;5049292;28;20438;-70
2022/04/07 04:29:54;;;;;;;2.60;1.83;;;11.40;99.90;;;;;;5048690;28;20437;-67
2022/04/07 04:32:20;;;;;;;2.10;1.57;;;11.40;99.90;;;;;;5049201;28;20196;-69
2022/04/07 04:34:45;;;;;;;2.97;1.80;;;11.40;99.90;;;;;;5050642;28;20199;-67
2022/04/07 04:37:11;;;;;;;3.77;2.00;;;11.40;99.90;;;;;;5055058;28;20183;-68
2022/04/07 04:39:37;;;;;;;2.87;2.00;;;11.40;99.90;;;;;;5052309;28;20196;-67
2022/04/07 04:42:07;;;;;;;1.93;1.60;;;11.40;99.90;;;;;;5049170;28;20210;-67
2022/04/07 04:44:32;;;;;;;2.90;1.60;;;11.40;99.90;;;;;;5048651;28;20485;-68
2022/04/07 04:46:58;;;;;;;1.83;1.63;;;11.40;99.90;;;;;;5047581;28;20850;-68
2022/04/07 04:49:24;;;;;;;2.27;1.53;;;11.40;99.90;;;;;;5049460;28;21802;-68
2022/04/07 04:51:50;;;;;;;2.77;1.83;;;11.30;99.90;;;;;;5050204;28;20786;-68
2022/04/07 04:54:15;;;;;;;2.07;1.80;;;11.30;99.90;;;;;;5050514;28;20188;-69
2022/04/07 04:56:41;;;;;;;2.10;1.50;;;11.30;99.90;;;;;;5050019;28;20201;-69
2022/04/07 04:59:08;;;;;;;1.67;1.40;;;11.30;99.90;;;;;;5049095;28;20258;-69
2022/04/07 05:01:34;;;;;;;2.33;1.90;;;11.30;99.90;;;;;;5045379;28;20210;-68
2022/04/07 05:03:59;;;;;;;4.27;2.03;;;11.20;99.90;;;;;;5053783;28;21061;-67
2022/04/07 05:06:25;;;;;;;1.90;1.40;;;11.30;99.90;;;;;;5046650;28;20198;-67
2022/04/07 05:08:51;;;;;;;3.13;1.87;;;11.30;99.90;;;;;;5048469;28;20245;-69
2022/04/07 05:11:16;;;;;;;2.40;1.70;;;11.30;99.90;;;;;;5049681;28;20230;-68
2022/04/07 05:13:42;;;;;;;1.70;1.27;;;11.30;99.90;;;;;;5048804;28;20597;-68
2022/04/07 05:16:08;;;;;;;3.93;1.80;;;11.30;99.90;;;;;;5048093;28;20262;-68
2022/04/07 05:18:34;;;;;;;2.10;1.37;;;11.20;99.90;;;;;;5048454;28;20569;-69
2022/04/07 05:21:00;;;;;;;2.00;1.43;;;11.20;99.90;;;;;;5048418;28;20345;-68
2022/04/07 05:23:26;;;;;;;2.77;1.70;;;11.20;99.90;;;;;;5047511;28;20431;-68
2022/04/07 05:25:51;;;;;;;2.03;1.40;;;11.30;99.90;;;;;;5049218;28;20434;-70
2022/04/07 05:28:18;;;;;;;2.17;1.37;;;11.30;99.90;;;;;;5048103;28;20293;-69
2022/04/07 05:30:44;;;;;;;1.60;1.40;;;11.30;99.90;;;;;;5050987;28;20322;-69
2022/04/07 05:33:10;;;;;;;2.00;1.70;;;11.30;99.90;;;;;;5047112;28;28134;-69
2022/04/07 05:35:36;;;;;;;1.70;1.40;;;11.20;99.90;;;;;;5047927;28;20566;-69
2022/04/07 05:38:03;;;;;;;2.47;1.40;;;11.20;99.90;;;;;;5049224;28;20441;-71
2022/04/07 05:40:29;;;;;;;1.70;1.33;;;11.20;99.90;;;;;;5048600;28;20191;-69
2022/04/07 05:42:55;;;;;;;5.43;1.30;;;11.30;99.90;;;;;;5052913;28;20568;-70
2022/04/07 05:45:22;;;;;;;2.10;1.80;;;11.30;99.90;;;;;;5049872;28;21009;-69
2022/04/07 05:47:48;;;;;;;1.90;1.60;;;11.40;99.90;;;;;;5044220;28;20433;-69
2022/04/07 05:50:13;;;;;;;2.10;1.60;;;11.40;99.90;;;;;;5046695;28;20498;-70
2022/04/07 05:52:39;;;;;;;1.50;1.30;;;11.40;99.90;;;;;;5047071;28;20203;-69
2022/04/07 05:55:06;;;;;;;2.10;1.37;;;11.40;99.90;;;;;;5044459;28;20248;-69
2022/04/07 05:57:32;;;;;;;1.60;1.20;;;11.40;99.90;;;;;;5042942;28;20445;-67
2022/04/07 06:00:04;;;;;;;3.33;1.60;;;11.50;99.90;;;;;;5047219;28;20486;-68
2022/04/07 06:02:30;;;;;;;1.70;1.40;;;11.50;99.90;;;;;;5049500;28;20477;-68
2022/04/07 06:04:55;;;;;;;1.73;1.50;;;11.50;99.90;;;;;;5045694;28;21002;-68
2022/04/07 06:07:22;;;;;;;1.70;1.30;;;11.50;99.90;;;;;;5048984;28;20179;-69
2022/04/07 06:09:48;;;;;;;2.33;1.40;;;11.50;99.90;;;;;;5047529;28;20171;-69
2022/04/07 06:12:13;;;;;;;1.90;1.20;;;11.40;99.90;;;;;;5048486;28;20835;-70
2022/04/07 06:14:39;;;;;;;2.85;1.30;;;11.40;99.90;;;;;;5040804;28;20434;-68
2022/04/07 06:17:04;;;;;;;1.87;1.20;;;11.40;99.90;;;;;;5049461;28;20711;-68
2022/04/07 06:19:30;;;;;;;2.63;1.57;;;11.30;99.90;;;;;;5047247;28;20184;-68
2022/04/07 06:21:56;;;;;;;1.80;1.20;;;11.30;99.90;;;;;;5050071;28;20214;-69
2022/04/07 06:24:21;;;;;;;1.60;1.27;;;11.30;99.90;;;;;;5047261;28;20233;-68
2022/04/07 06:26:49;;;;;;;1.50;1.20;;;11.30;99.90;;;;;;5048614;28;20218;-68
2022/04/07 06:29:15;;;;;;;1.73;1.30;;;11.20;99.90;;;;;;5049355;28;20179;-68
2022/04/07 06:31:40;;;;;;;2.53;1.30;;;11.20;99.90;;;;;;5052091;28;20507;-67
2022/04/07 06:34:06;;;;;;;1.83;1.17;;;11.20;99.90;;;;;;5054263;28;21243;-69
2022/04/07 06:36:31;;;;;;;2.40;1.30;;;11.30;99.90;;;;;;5052695;28;20179;-68
2022/04/07 06:38:57;;;;;;;2.90;1.30;;;11.30;99.90;;;;;;5057472;28;20394;-68
2022/04/07 06:41:23;;;;;;;2.43;1.20;;;11.30;99.90;;;;;;5055181;28;20260;-67
2022/04/07 06:43:48;;;;;;;1.50;1.20;;;11.30;99.90;;;;;;5055132;28;20564;-66
2022/04/07 06:46:14;;;;;;;2.10;1.23;;;11.30;99.90;;;;;;5053656;28;20432;-67
2022/04/07 06:48:39;;;;;;;1.37;0.90;;;11.30;99.90;;;;;;5053579;28;20944;-66
2022/04/07 06:51:05;;;;;;;3.70;1.27;;;11.30;99.90;;;;;;5054542;28;20207;-66
2022/04/07 06:53:31;;;;;;;2.30;1.20;;;11.40;99.90;;;;;;5053216;28;20212;-67
2022/04/07 06:55:56;;;;;;;2.53;1.50;;;11.40;99.90;;;;;;5056226;28;20197;-66
2022/04/07 06:58:22;;;;;;;2.27;1.63;;;11.40;99.90;;;;;;5056216;28;20676;-68
2022/04/07 07:00:48;;;;;;;1.97;1.40;;;11.40;99.90;;;;;;5056847;28;20211;-68
2022/04/07 07:03:15;;;;;;;2.60;1.40;;;11.40;99.90;;;;;;5053561;28;20207;-69
2022/04/07 07:05:41;;;;;;;1.40;1.10;;;11.30;99.90;;;;;;5054612;28;20191;-68
2022/04/07 07:08:14;;;;;;;3.27;2.77;;;11.30;99.90;;;;;;5055805;28;20436;-69
2022/04/07 07:10:40;;;;;;;2.73;1.37;;;11.20;99.90;;;;;;5055616;28;20441;-69
2022/04/07 07:13:06;;;;;;;1.53;1.20;;;11.20;99.90;;;;;;5053676;28;20540;-70
2022/04/07 07:15:31;;;;;;;1.77;1.23;;;11.20;99.90;;;;;;5053916;28;20512;-70
2022/04/07 07:17:57;;;;;;;3.60;1.33;;;11.20;99.90;;;;;;5055851;28;20640;-68
2022/04/07 07:20:23;;;;;;;2.60;1.20;;;11.20;99.90;;;;;;5054089;28;20198;-67
2022/04/07 07:22:48;;;;;;;1.50;1.23;;;11.20;99.90;;;;;;5051930;28;20768;-66
2022/04/07 07:25:14;;;;;;;4.40;1.53;;;11.20;99.90;;;;;;5050913;28;20534;-67
2022/04/07 07:27:41;;;;;;;4.30;1.23;;;11.20;99.90;;;;;;5052407;28;20680;-66
2022/04/07 07:30:09;;;;;;;1.97;1.17;;;11.30;99.90;;;;;;5053014;28;20414;-64
2022/04/07 07:32:36;;;;;;;3.83;1.27;;;11.20;99.90;;;;;;5049188;28;20962;-68
2022/04/07 07:35:02;;;;;;;5.03;1.40;;;11.30;99.90;;;;;;5049244;28;20978;-66
2022/04/07 07:37:28;;;;;;;3.17;1.60;;;11.30;99.90;;;;;;5054483;28;20434;-66
2022/04/07 07:39:53;;;;;;;1.50;1.30;;;11.40;99.90;;;;;;5054866;28;21041;-69
2022/04/07 07:42:19;;;;;;;1.87;1.40;;;11.40;99.90;;;;;;5054023;28;20313;-68
2022/04/07 07:44:44;;;;;;;4.13;1.83;;;11.40;99.90;;;;;;5049392;28;20192;-67
2022/04/07 07:47:10;;;;;;;1.70;1.40;;;11.40;99.90;;;;;;5051779;28;20191;-76
2022/04/07 07:49:36;;;;;;;3.30;1.33;;;11.50;99.90;;;;;;5050154;28;20187;-73
2022/04/07 07:52:02;;;;;;;3.73;1.67;;;11.60;99.90;;;;;;5046959;28;20219;-73
2022/04/07 07:54:28;;;;;;;3.63;1.50;;;11.60;99.90;;;;;;5052205;28;20183;-73
2022/04/07 07:56:54;;;;;;;2.60;1.40;;;11.70;99.90;;;;;;5051548;28;20446;-73
2022/04/07 07:59:20;;;;;;;2.03;1.70;;;11.70;99.90;;;;;;5055437;28;20183;-75
2022/04/07 08:01:48;;;;;;;2.17;1.40;;;11.80;99.90;;;;;;5056162;28;20910;-76
2022/04/07 08:04:15;;;;;;;3.30;1.63;;;11.90;99.90;;;;;;5054219;28;20828;-74
2022/04/07 08:06:43;;;;;;;2.23;1.40;;;11.90;99.90;;;;;;5056903;28;20434;-73
2022/04/07 08:09:10;;;;;;;1.90;1.30;;;11.90;99.90;;;;;;5053546;28;20516;-74
2022/04/07 08:11:36;;;;;;;3.87;1.40;;;12.00;99.90;;;;;;5054406;28;20462;-75
2022/04/07 08:14:02;;;;;;;1.77;1.50;;;12.00;99.90;;;;;;5059776;28;20429;-74
2022/04/07 08:16:31;;;;;;;3.07;1.60;;;12.10;99.90;;;;;;5052435;28;20805;-74
2022/04/07 08:18:57;;;;;;;1.60;1.20;;;12.20;99.90;;;;;;5055143;28;20490;-75
2022/04/07 08:21:22;;;;;;;1.83;1.40;;;12.30;99.90;;;;;;5056047;28;20468;-74
2022/04/07 08:23:48;;;;;;;2.90;1.73;;;12.40;99.90;;;;;;5054956;28;20183;-75
2022/04/07 08:26:14;;;;;;;1.50;1.10;;;12.50;99.90;;;;;;5051876;28;20688;-73
2022/04/07 08:28:40;;;;;;;2.43;1.30;;;12.60;99.90;;;;;;5053927;28;20192;-73
2022/04/07 08:31:05;;;;;;;4.70;1.47;;;12.60;99.90;;;;;;5049509;28;20227;-74
2022/04/07 08:33:31;;;;;;;2.73;1.30;;;12.70;99.90;;;;;;5053406;28;20479;-74
2022/04/07 08:35:57;;;;;;;1.50;1.20;;;12.70;99.90;;;;;;5053762;28;20636;-74
2022/04/07 08:38:22;;;;;;;4.07;1.20;;;12.60;99.90;;;;;;5054744;28;20211;-75
2022/04/07 08:40:51;;;;;;;2.10;1.30;;;12.60;99.90;;;;;;5054459;28;20199;-76
2022/04/07 08:43:20;;;;;;;2.33;1.30;;;12.50;99.90;;;;;;5052891;28;20533;-74
2022/04/07 08:45:45;;;;;;;1.80;1.10;;;12.50;99.90;;;;;;5052615;28;20425;-78
2022/04/07 08:48:12;;;;;;;2.33;1.10;;;12.50;99.90;;;;;;5057683;28;20489;-75
2022/04/07 08:50:43;;;;;;;2.73;1.90;;;12.50;99.90;;;;;;5055993;28;20191;-75
2022/04/07 08:53:10;;;;;;;1.80;1.30;;;12.50;99.90;;;;;;5052112;28;21005;-76
2022/04/07 08:55:37;;;;;;;1.50;1.10;;;12.50;99.90;;;;;;5051241;28;20438;-74
2022/04/07 08:58:03;;;;;;;1.50;1.17;;;12.40;99.90;;;;;;5054297;28;20443;-74
2022/04/07 09:00:29;;;;;;;2.93;1.30;;;12.40;99.90;;;;;;5051264;28;20434;-73
2022/04/07 09:02:55;;;;;;;1.50;1.07;;;12.40;99.90;;;;;;5051828;28;20454;-73
2022/04/07 09:05:25;;;;;;;1.50;1.10;;;12.30;99.90;;;;;;5052896;28;20509;-76
2022/04/07 09:07:56;;;;;;;5.03;1.57;;;12.30;99.90;;;;;;5052557;28;20179;-75
2022/04/07 09:10:24;;;;;;;4.23;1.37;;;12.20;99.90;;;;;;5053438;28;20468;-79
2022/04/07 09:12:53;;;;;;;1.90;1.30;;;12.10;99.90;;;;;;5054457;28;20449;-74
2022/04/07 09:15:19;;;;;;;1.57;1.00;;;12.10;99.90;;;;;;5054764;28;20441;-77
2022/04/07 09:17:55;;;;;;;1.90;1.47;;;12.10;99.90;;;;;;5054264;28;20787;-76
2022/04/07 09:20:22;;;;;;;1.67;1.20;;;12.10;99.90;;;;;;5051214;28;20422;-72
2022/04/07 09:22:58;;;;;;;7.63;1.50;;;12.00;99.90;;;;;;5052538;28;20486;-76
2022/04/07 09:25:25;;;;;;;3.77;1.20;;;11.90;99.90;;;;;;5051367;28;20864;-74
2022/04/07 09:27:51;;;;;;;1.57;1.10;;;11.90;99.90;;;;;;5053523;28;20465;-74
2022/04/07 09:30:17;;;;;;;2.07;1.20;;;11.80;99.90;;;;;;5055970;28;20512;-75
2022/04/07 09:32:44;;;;;;;2.73;1.40;;;11.80;99.90;;;;;;5054050;28;20474;-77
2022/04/07 09:35:11;;;;;;;3.00;1.40;;;11.80;99.90;;;;;;5051327;28;20191;-77
2022/04/07 09:37:40;;;;;;;2.20;1.30;;;11.90;99.90;;;;;;5053214;28;20465;-75
2022/04/07 09:40:18;;;;;;;1.97;1.20;;;11.90;99.90;;;;;;5056232;28;20426;-76
2022/04/07 09:42:43;;;;;;;1.60;1.20;;;11.90;99.90;;;;;;5053893;28;20468;-77
2022/04/07 09:45:12;;;;;;;2.17;1.23;;;12.00;99.90;;;;;;5051961;28;20502;-76
2022/04/07 09:47:39;;;;;;;1.63;1.20;;;12.00;99.90;;;;;;5051368;28;20430;-77
2022/04/07 09:50:06;;;;;;;2.90;1.30;;;12.10;99.90;;;;;;5055327;28;20439;-76
2022/04/07 09:52:32;;;;;;;1.60;1.20;;;12.20;99.90;;;;;;5049636;28;20533;-77
2022/04/07 09:55:06;;;;;;;1.57;1.23;;;12.30;99.90;;;;;;5054276;28;20516;-76
2022/04/07 09:57:33;;;;;;;3.67;1.40;;;12.40;99.90;;;;;;5051306;28;20430;-76
2022/04/07 10:00:02;;;;;;;1.70;1.20;;;12.50;99.90;;;;;;5059180;28;20518;-77
2022/04/07 10:02:32;;;;;;;1.60;1.23;;;12.60;99.90;;;;;;5048333;28;20477;-77
2022/04/07 10:04:58;;;;;;;4.23;1.20;;;12.60;99.90;;;;;;5058972;28;20453;-77
2022/04/07 10:07:25;;;;;;;1.50;1.17;;;12.70;99.90;;;;;;5060578;28;20426;-77
2022/04/07 10:09:51;;;;;;;2.27;1.40;;;12.80;99.90;;;;;;5056045;28;20513;-77
2022/04/07 10:12:18;;;;;;;1.67;1.20;;;12.80;99.90;;;;;;5059181;28;20461;-77
2022/04/07 10:14:44;;;;;;;5.43;1.40;;;12.90;99.90;;;;;;5057994;28;20426;-78
2022/04/07 10:17:13;;;;;;;2.17;1.30;;;13.00;99.90;;;;;;5059449;28;20984;-78
2022/04/07 10:20:04;;;;;;;1.80;1.13;;;13.00;99.90;;;;;;5058024;28;20434;-77
2022/04/07 10:22:48;;;;;;;1.50;1.30;;;13.00;99.90;;;;;;5057282;28;20473;-78
2022/04/07 10:25:16;;;;;;;3.30;1.40;;;13.10;99.90;;;;;;5058006;28;20472;-78
2022/04/07 10:27:53;;;;;;;1.87;1.23;;;13.20;99.90;;;;;;5056065;28;20457;-78
2022/04/07 10:30:19;;;;;;;2.63;1.20;;;13.30;99.90;;;;;;5054751;28;20472;-78
2022/04/07 10:32:49;;;;;;;2.10;1.20;;;13.40;99.90;;;;;;5052072;28;20489;-78
2022/04/07 10:35:30;;;;;;;1.40;1.10;;;13.40;99.90;;;;;;5055835;28;20172;-78
2022/04/07 10:37:59;;;;;;;1.60;1.23;;;13.50;99.90;;;;;;5055790;28;20502;-77
2022/04/07 10:40:39;;;;;;;4.90;1.40;;;13.50;99.90;;;;;;5053563;28;20437;-78
2022/04/07 10:43:10;;;;;;;2.10;1.20;;;13.70;99.90;;;;;;5055172;28;20480;-78
2022/04/07 10:45:43;;;;;;;1.83;1.40;;;13.70;99.90;;;;;;5056485;28;20426;-79
2022/04/07 10:48:29;;;;;;;1.80;1.33;;;13.70;99.90;;;;;;5058996;28;20445;-79
2022/04/07 10:51:00;;;;;;;1.60;1.40;;;13.60;99.90;;;;;;5056638;28;20981;-78
2022/04/07 10:53:30;;;;;;;1.60;1.20;;;13.50;99.90;;;;;;5058301;28;20448;-78
2022/04/07 10:55:56;;;;;;;2.30;1.20;;;13.50;99.90;;;;;;5058381;28;20425;-78
2022/04/07 10:58:50;;;;;;;2.33;1.20;;;13.60;99.90;;;;;;5055242;28;20472;-78
2022/04/07 11:01:39;;;;;;;1.90;1.50;;;13.60;99.90;;;;;;5058537;28;20836;-78
2022/04/07 11:04:23;;;;;;;4.10;1.30;;;13.80;99.90;;;;;;5059237;28;20426;-78
2022/04/07 11:07:16;;;;;;;1.43;1.17;;;14.00;99.90;;;;;;5059352;28;20421;-78
2022/04/07 11:09:53;;;;;;;3.07;1.23;;;14.10;99.90;;;;;;5061687;28;20462;-78
2022/04/07 11:12:25;;;;;;;1.70;1.23;;;14.20;99.90;;;;;;5056830;28;20486;-78
2022/04/07 11:15:28;;;;;;;7.23;1.40;;;14.20;99.90;;;;;;5056382;28;20432;-79
2022/04/07 11:18:02;;;;;;;2.90;1.20;;;14.20;99.90;;;;;;5044081;28;21213;-78
2022/04/07 11:20:28;;;;;;;1.50;1.10;;;14.20;99.90;;;;;;5057131;28;20437;-78
2022/04/07 11:23:13;;;;;;;2.27;1.27;;;14.20;99.90;;;;;;5059111;28;20453;-79
2022/04/07 11:25:43;;;;;;;2.70;1.40;;;14.20;99.90;;;;;;5054391;28;20180;-78
2022/04/07 11:28:17;;;;;;;1.80;1.30;;;14.00;99.90;;;;;;5054564;28;20421;-78
2022/04/07 11:30:42;;;;;;;1.50;1.20;;;14.00;99.90;;;;;;5052120;28;20430;-78
2022/04/07 11:33:20;;;;;;;1.40;1.20;;;14.00;99.90;;;;;;5052639;28;20499;-78
2022/04/07 11:36:03;;;;;;;3.30;1.30;;;14.00;99.90;;;;;;5051345;28;20176;-78
2022/04/07 11:38:30;;;;;;;1.33;1.00;;;13.90;99.90;;;;;;5057679;28;20478;-78
2022/04/07 11:41:02;;;;;;;1.70;1.20;;;13.90;99.90;;;;;;5052635;28;20683;-78
2022/04/07 11:43:28;;;;;;;1.60;1.10;;;13.80;99.90;;;;;;5052684;28;20442;-77
2022/04/07 11:45:56;;;;;;;1.50;1.20;;;13.90;99.90;;;;;;5057996;28;20421;-79
2022/04/07 11:48:23;;;;;;;3.57;1.20;;;13.90;99.90;;;;;;5053187;28;20903;-78
2022/04/07 11:50:51;;;;;;;1.67;1.37;;;13.90;99.90;;;;;;5050862;28;20489;-77
2022/04/07 11:53:17;;;;;;;1.97;1.40;;;14.00;99.90;;;;;;5054654;28;20436;-77
2022/04/07 11:55:43;;;;;;;1.97;1.20;;;14.00;99.90;;;;;;5060925;28;20526;-77
2022/04/07 11:58:17;;;;;;;1.37;1.10;;;14.10;99.90;;;;;;5058457;28;21287;-78
2022/04/07 12:00:42;;;;;;;1.40;1.10;;;13.80;99.90;;;;;;5055442;28;20429;-81
2022/04/07 12:03:08;;;;;;;1.60;1.00;;;13.80;99.90;;;;;;5059518;28;20952;-85
2022/04/07 12:05:38;;;;;;;1.60;1.10;;;13.60;99.90;;;;;;5065226;28;20207;-82
2022/04/07 12:08:14;;;;;;;1.53;1.10;;;13.60;99.90;;;;;;5051913;28;20608;-80
2022/04/07 12:10:41;;;;;;;1.53;1.10;;;13.70;99.90;;;;;;5052205;28;20654;-82
2022/04/07 12:13:07;;;;;;;4.27;1.20;;;13.80;99.90;;;;;;5056094;28;20425;-77
2022/04/07 12:15:37;;;;;;;4.63;1.20;;;13.80;99.90;;;;;;5051596;28;20486;-73
2022/04/07 12:40:52;;;;;;;6.70;1.50;;;14.20;99.90;;;;;;5551876;22;20537;-71
2022/04/07 12:43:17;;;;;;;2.00;1.17;;;14.10;99.90;;;;;;5015652;28;20435;-73
2022/04/07 12:45:58;;;;;;;4.23;1.00;;;14.10;99.90;;;;;;5012739;28;20364;-74
2022/04/07 12:48:24;;;;;;;2.17;1.20;;;14.10;99.90;;;;;;5021814;28;20196;-72
2022/04/07 12:50:50;;;;;;;1.60;1.20;;;14.10;99.90;;;;;;5019652;28;20469;-72
2022/04/07 12:53:34;;;;;;;1.40;1.10;;;14.10;99.90;;;;;;5022532;28;20185;-74
2022/04/07 12:56:16;;;;;;;4.33;1.40;;;14.20;99.90;;;;;;5021632;28;20452;-73
2022/04/07 12:58:42;;;;;;;1.40;1.00;;;14.20;99.90;;;;;;5021452;28;20446;-74
2022/04/07 13:01:08;;;;;;;1.80;1.20;;;14.20;99.90;;;;;;5019453;28;20958;-75
2022/04/07 13:03:51;;;;;;;1.40;1.00;;;14.30;99.90;;;;;;5016715;28;20436;-72
2022/04/07 13:06:16;;;;;;;1.70;1.20;;;14.20;99.90;;;;;;5017938;28;20200;-72
2022/04/07 13:08:42;;;;;;;1.40;1.10;;;14.20;99.90;;;;;;5011301;28;20517;-73
2022/04/07 13:11:08;;;;;;;1.97;1.10;;;14.20;99.90;;;;;;5014399;28;20291;-74
2022/04/07 13:13:33;;;;;;;4.13;1.10;;;14.10;99.90;;;;;;5017280;28;20185;-73